Observation data for Olton on 12/09/2018      Previous  Date  Next       Current Mesonet Observations  Soil Data  Daily Summary Page  Observations in Plain Language
KONS 090600Z 30003KT M10/M11 A3029 RMK A01 T10981109  RH  093%=      5-min Rain = 0
KONS 090605Z 30003KT M10/M11 A3029 RMK A01 T10961107  RH  093%=      5-min Rain = 0
KONS 090610Z 30003KT M10/M11 A3029 RMK A01 T10951106  RH  093%=      5-min Rain = 0
KONS 090615Z 29004KT M10/M11 A3029 RMK A01 T10961108  RH  093%=      5-min Rain = 0
KONS 090620Z 29003KT M09/M11 A3029 RMK A01 T10941105  RH  093%=      5-min Rain = 0
KONS 090625Z 28004KT M09/M10 A3029 RMK A01 T10921103  RH  093%=      5-min Rain = 0
KONS 090630Z 28004KT M09/M10 A3029 RMK A01 T10911101  RH  093%=      5-min Rain = 0
KONS 090635Z 29004KT M09/M10 A3029 RMK A01 T10921103  RH  093%=      5-min Rain = 0
KONS 090640Z 29004KT M09/M11 A3029 RMK A01 T10931105  RH  092%=      5-min Rain = 0
KONS 090645Z 30004KT M10/M11 A3029 RMK A01 T10951107  RH  092%=      5-min Rain = 0
KONS 090650Z 29004KT M09/M11 A3029 RMK A01 T10941106  RH  093%=      5-min Rain = 0
KONS 090655Z 30004KT M09/M11 A3028 RMK A01 T10941105  RH  093%=      5-min Rain = 0
KONS 090700Z 30004KT M10/M11 A3028 RMK A01 T10951107  RH  093%=      5-min Rain = 0
KONS 090705Z 29005KT M10/M11 A3029 RMK A01 T10961107  RH  093%=      5-min Rain = 0
KONS 090710Z 30005KT M10/M11 A3029 RMK A01 T10951107  RH  093%=      5-min Rain = 0
KONS 090715Z 30005KT M10/M11 A3029 RMK A01 T10981110  RH  092%=      5-min Rain = 0
KONS 090720Z 30005KT M10/M11 A3028 RMK A01 T10991112  RH  092%=      5-min Rain = 0
KONS 090725Z 30005KT M10/M11 A3028 RMK A01 T10981109  RH  093%=      5-min Rain = 0
KONS 090730Z 30005KT M10/M11 A3028 RMK A01 T10961108  RH  093%=      5-min Rain = 0
KONS 090735Z 30005KT M09/M10 A3028 RMK A01 T10931104  RH  093%=      5-min Rain = 0
KONS 090740Z 30005KT M09/M11 A3028 RMK A01 T10931105  RH  093%=      5-min Rain = 0
KONS 090745Z 30005KT M10/M11 A3028 RMK A01 T10971110  RH  092%=      5-min Rain = 0
KONS 090750Z 31005KT M10/M11 A3027 RMK A01 T11001112  RH  092%=      5-min Rain = 0
KONS 090755Z 32005KT M10/M11 A3028 RMK A01 T11011113  RH  092%=      5-min Rain = 0
KONS 090800Z 31005KT M10/M11 A3028 RMK A01 T11011113  RH  092%=      5-min Rain = 0
KONS 090805Z 31005KT M10/M12 A3028 RMK A01 T11031115  RH  092%=      5-min Rain = 0
KONS 090810Z 31005KT M10/M12 A3028 RMK A01 T11041116  RH  092%=      5-min Rain = 0
KONS 090815Z 31005KT M10/M12 A3028 RMK A01 T11031115  RH  092%=      5-min Rain = 0
KONS 090820Z 31005KT M10/M11 A3028 RMK A01 T11021114  RH  092%=      5-min Rain = 0
KONS 090825Z 31005KT M10/M11 A3028 RMK A01 T11011113  RH  092%=      5-min Rain = 0
KONS 090830Z 31005KT M10/M11 A3028 RMK A01 T11001111  RH  092%=      5-min Rain = 0
KONS 090835Z 32005KT M10/M11 A3028 RMK A01 T10991110  RH  093%=      5-min Rain = 0
KONS 090840Z 32005KT M10/M11 A3028 RMK A01 T10991111  RH  092%=      5-min Rain = 0
KONS 090845Z 33005KT M10/M11 A3028 RMK A01 T10991110  RH  093%=      5-min Rain = 0
KONS 090850Z 33005KT M10/M11 A3028 RMK A01 T10991111  RH  092%=      5-min Rain = 0
KONS 090855Z 33005KT M10/M12 A3028 RMK A01 T11021115  RH  092%=      5-min Rain = 0
KONS 090900Z 33006KT M10/M12 A3028 RMK A01 T11031116  RH  092%=      5-min Rain = 0
KONS 090905Z 33006KT M10/M12 A3028 RMK A01 T11031115  RH  092%=      5-min Rain = 0
KONS 090910Z 33006KT M10/M11 A3028 RMK A01 T11021114  RH  092%=      5-min Rain = 0
KONS 090915Z 33006KT M10/M11 A3028 RMK A01 T11001111  RH  093%=      5-min Rain = 0
KONS 090920Z 34006KT M10/M11 A3028 RMK A01 T10981110  RH  093%=      5-min Rain = 0
KONS 090925Z 33006KT M10/M11 A3028 RMK A01 T11001113  RH  092%=      5-min Rain = 0
KONS 090930Z 33006KT M10/M12 A3028 RMK A01 T11041117  RH  091%=      5-min Rain = 0
KONS 090935Z 33006KT M10/M12 A3028 RMK A01 T11031115  RH  092%=      5-min Rain = 0
KONS 090940Z 34006KT M10/M11 A3028 RMK A01 T11021114  RH  092%=      5-min Rain = 0
KONS 090945Z 34006KT M10/M11 A3028 RMK A01 T11011113  RH  092%=      5-min Rain = 0
KONS 090950Z 34006KT M10/M11 A3028 RMK A01 T11001112  RH  092%=      5-min Rain = 0
KONS 090955Z 34005KT M10/M11 A3028 RMK A01 T11001112  RH  092%=      5-min Rain = 0
KONS 091000Z 34006KT M10/M11 A3028 RMK A01 T11001111  RH  092%=      5-min Rain = 0
KONS 091005Z 34005KT M10/M11 A3028 RMK A01 T10981109  RH  093%=      5-min Rain = 0
KONS 091010Z 33006KT M10/M11 A3028 RMK A01 T10961107  RH  093%=      5-min Rain = 0
KONS 091015Z 34006KT M10/M11 A3028 RMK A01 T10951105  RH  093%=      5-min Rain = 0
KONS 091020Z 33006KT M09/M10 A3028 RMK A01 T10921103  RH  093%=      5-min Rain = 0
KONS 091025Z 33005KT M09/M10 A3028 RMK A01 T10911102  RH  093%=      5-min Rain = 0
KONS 091030Z 32005KT M09/M10 A3028 RMK A01 T10891100  RH  093%=      5-min Rain = 0
KONS 091035Z 33005KT M09/M10 A3028 RMK A01 T10871097  RH  094%=      5-min Rain = 0
KONS 091040Z 33005KT M08/M09 A3028 RMK A01 T10841094  RH  094%=      5-min Rain = 0
KONS 091045Z 32005KT M08/M09 A3028 RMK A01 T10841094  RH  094%=      5-min Rain = 0
KONS 091050Z 32005KT M08/M09 A3028 RMK A01 T10841094  RH  094%=      5-min Rain = 0
KONS 091055Z 32005KT M08/M10 A3028 RMK A01 T10841095  RH  093%=      5-min Rain = 0
KONS 091100Z 32005KT M09/M10 A3028 RMK A01 T10861097  RH  093%=      5-min Rain = 0
KONS 091105Z 32005KT M09/M10 A3028 RMK A01 T10871098  RH  093%=      5-min Rain = 0
KONS 091110Z 32005KT M09/M10 A3028 RMK A01 T10881098  RH  093%=      5-min Rain = 0
KONS 091115Z 32006KT M09/M10 A3028 RMK A01 T10871097  RH  093%=      5-min Rain = 0
KONS 091120Z 32006KT M09/M10 A3028 RMK A01 T10851095  RH  094%=      5-min Rain = 0
KONS 091125Z 32005KT M09/M10 A3028 RMK A01 T10851095  RH  093%=      5-min Rain = 0
KONS 091130Z 32005KT M09/M10 A3028 RMK A01 T10871098  RH  093%=      5-min Rain = 0
KONS 091135Z 33006KT M09/M10 A3028 RMK A01 T10861096  RH  094%=      5-min Rain = 0
KONS 091140Z 33006KT M08/M09 A3028 RMK A01 T10831092  RH  094%=      5-min Rain = 0
KONS 091145Z 32005KT M08/M09 A3028 RMK A01 T10821091  RH  094%=      5-min Rain = 0
KONS 091150Z 32004KT M08/M09 A3028 RMK A01 T10831093  RH  093%=      5-min Rain = 0
KONS 091155Z 33005KT M09/M10 A3028 RMK A01 T10851096  RH  093%=      5-min Rain = 0
KONS 091200Z 32005KT M09/M10 A3028 RMK A01 T10851096  RH  093%=      5-min Rain = 0
KONS 091205Z 32004KT M09/M10 A3028 RMK A01 T10851096  RH  093%=      5-min Rain = 0
KONS 091210Z 32004KT M09/M10 A3028 RMK A01 T10871098  RH  093%=      5-min Rain = 0
KONS 091215Z 32004KT M09/M10 A3029 RMK A01 T10871098  RH  093%=      5-min Rain = 0
KONS 091220Z 32005KT M09/M10 A3029 RMK A01 T10881099  RH  093%=      5-min Rain = 0
KONS 091225Z 31005KT M09/M10 A3029 RMK A01 T10901102  RH  093%=      5-min Rain = 0
KONS 091230Z 31005KT M09/M10 A303 RMK A01 T10921104  RH  093%=      5-min Rain = 0
KONS 091235Z 31005KT M09/M10 A303 RMK A01 T10921103  RH  093%=      5-min Rain = 0
KONS 091240Z 31005KT M09/M10 A303 RMK A01 T10911102  RH  093%=      5-min Rain = 0
KONS 091245Z 32004KT M09/M10 A303 RMK A01 T10901100  RH  093%=      5-min Rain = 0
KONS 091250Z 32005KT M09/M10 A303 RMK A01 T10891099  RH  093%=      5-min Rain = 0
KONS 091255Z 32005KT M09/M10 A303 RMK A01 T10881098  RH  093%=      5-min Rain = 0
KONS 091300Z 32005KT M09/M10 A3031 RMK A01 T10881099  RH  093%=      5-min Rain = 0
KONS 091305Z 32005KT M09/M10 A3031 RMK A01 T10901102  RH  093%=      5-min Rain = 0
KONS 091310Z 32005KT M09/M10 A3031 RMK A01 T10931104  RH  092%=      5-min Rain = 0
KONS 091315Z 32005KT M09/M11 A3031 RMK A01 T10941106  RH  093%=      5-min Rain = 0
KONS 091320Z 32005KT M09/M10 A3032 RMK A01 T10931104  RH  093%=      5-min Rain = 0
KONS 091325Z 32004KT M09/M10 A3032 RMK A01 T10911101  RH  093%=      5-min Rain = 0
KONS 091330Z 31004KT M09/M10 A3032 RMK A01 T10871097  RH  094%=      5-min Rain = 0
KONS 091335Z 32005KT M08/M09 A3032 RMK A01 T10841094  RH  094%=      5-min Rain = 0
KONS 091340Z 31005KT M08/M09 A3033 RMK A01 T10831093  RH  094%=      5-min Rain = 0
KONS 091345Z 32004KT M08/M09 A3033 RMK A01 T10821091  RH  094%=      5-min Rain = 0
KONS 091350Z 32005KT M08/M09 A3033 RMK A01 T10811090  RH  094%=      5-min Rain = 0
KONS 091355Z 32004KT M08/M09 A3033 RMK A01 T10791089  RH  094%=      5-min Rain = 0
KONS 091400Z 31004KT M08/M09 A3033 RMK A01 T10781088  RH  094%=      5-min Rain = 0
KONS 091405Z 30004KT M08/M09 A3033 RMK A01 T10761086  RH  094%=      5-min Rain = 0
KONS 091410Z 30004KT M07/M08 A3033 RMK A01 T10741084  RH  094%=      5-min Rain = 0
KONS 091415Z 31004KT M07/M08 A3033 RMK A01 T10741083  RH  094%=      5-min Rain = 0
KONS 091420Z 31005KT M07/M08 A3034 RMK A01 T10721082  RH  094%=      5-min Rain = 0
KONS 091425Z 32005KT M07/M08 A3034 RMK A01 T10711081  RH  094%=      5-min Rain = 0
KONS 091430Z 32005KT M07/M08 A3034 RMK A01 T10701080  RH  094%=      5-min Rain = 0
KONS 091435Z 32005KT M07/M08 A3034 RMK A01 T10671076  RH  095%=      5-min Rain = 0
KONS 091440Z 32005KT M06/M07 A3035 RMK A01 T10631071  RH  095%=      5-min Rain = 0
KONS 091445Z 32005KT M06/M07 A3035 RMK A01 T10611069  RH  095%=      5-min Rain = 0
KONS 091450Z 32005KT M06/M07 A3035 RMK A01 T10601068  RH  095%=      5-min Rain = 0
KONS 091455Z 32005KT M06/M07 A3035 RMK A01 T10601068  RH  095%=      5-min Rain = 0
KONS 091500Z 32005KT M06/M07 A3035 RMK A01 T10581067  RH  095%=      5-min Rain = 0
KONS 091505Z 32005KT M06/M07 A3036 RMK A01 T10571066  RH  095%=      5-min Rain = 0
KONS 091510Z 32004KT M06/M07 A3036 RMK A01 T10561065  RH  094%=      5-min Rain = 0
KONS 091515Z 32004KT M05/M06 A3036 RMK A01 T10541063  RH  095%=      5-min Rain = 0
KONS 091520Z 32004KT M05/M06 A3036 RMK A01 T10521060  RH  095%=      5-min Rain = 0
KONS 091525Z 32004KT M05/M06 A3036 RMK A01 T10491057  RH  095%=      5-min Rain = 0
KONS 091530Z 32004KT M05/M06 A3036 RMK A01 T10471055  RH  095%=      5-min Rain = 0
KONS 091535Z 32004KT M04/M05 A3036 RMK A01 T10441052  RH  095%=      5-min Rain = 0
KONS 091540Z 33003KT M04/M05 A3036 RMK A01 T10411049  RH  095%=      5-min Rain = 0
KONS 091545Z 34003KT M04/M05 A3036 RMK A01 T10391047  RH  096%=      5-min Rain = 0
KONS 091550Z 34003KT M04/M05 A3036 RMK A01 T10381046  RH  096%=      5-min Rain = 0
KONS 091555Z 33002KT M04/M05 A3037 RMK A01 T10381045  RH  096%=      5-min Rain = 0
KONS 091600Z 33003KT M04/M05 A3037 RMK A01 T10371045  RH  095%=      5-min Rain = 0
KONS 091605Z 33003KT M04/M04 A3037 RMK A01 T10361043  RH  096%=      5-min Rain = 0
KONS 091610Z 32002KT M03/M04 A3037 RMK A01 T10321040  RH  096%=      5-min Rain = 0
KONS 091615Z 32002KT M03/M04 A3037 RMK A01 T10291037  RH  096%=      5-min Rain = 0
KONS 091620Z 33002KT M03/M03 A3038 RMK A01 T10271034  RH  096%=      5-min Rain = 0
KONS 091625Z 32002KT M02/M03 A3038 RMK A01 T10241031  RH  096%=      5-min Rain = 0
KONS 091630Z 30002KT M02/M03 A3038 RMK A01 T10211028  RH  096%=      5-min Rain = 0
KONS 091635Z 31003KT M02/M03 A3038 RMK A01 T10191026  RH  096%=      5-min Rain = 0
KONS 091640Z 31002KT M02/M02 A3038 RMK A01 T10161023  RH  096%=      5-min Rain = 0
KONS 091645Z 31002KT M01/M02 A3038 RMK A01 T10131020  RH  096%=      5-min Rain = 0
KONS 091650Z 32002KT M01/M02 A3038 RMK A01 T10101017  RH  096%=      5-min Rain = 0
KONS 091655Z 30001KT M01/M02 A3038 RMK A01 T10081015  RH  096%=      5-min Rain = 0
KONS 091700Z 31001KT M01/M01 A3038 RMK A01 T10071013  RH  096%=      5-min Rain = 0
KONS 091705Z 32002KT M01/M01 A3038 RMK A01 T10061012  RH  096%=      5-min Rain = 0
KONS 091710Z 33002KT M01/M01 A3038 RMK A01 T10051012  RH  096%=      5-min Rain = 0
KONS 091715Z 31001KT M00/M01 A3038 RMK A01 T10041011  RH  096%=      5-min Rain = 0
KONS 091720Z 29001KT M00/M01 A3037 RMK A01 T10031010  RH  096%=      5-min Rain = 0
KONS 091725Z 29000KT M00/M01 A3037 RMK A01 T10011008  RH  096%=      5-min Rain = 0
KONS 091730Z 00000KT 00/M01 A3037 RMK A01 T00011006  RH  096%=      5-min Rain = 0
KONS 091735Z 00000KT 00/M01 A3037 RMK A01 T00021005  RH  096%=      5-min Rain = 0
KONS 091740Z 26000KT 00/M00 A3037 RMK A01 T00021004  RH  096%=      5-min Rain = 0
KONS 091745Z 24001KT 00/01 A3037 RMK A01 T000000-6  RH  097%=      5-min Rain = 0
KONS 091750Z 25002KT M00/M01 A3037 RMK A01 T10011007  RH  097%=      5-min Rain = 0
KONS 091755Z 23002KT M00/M01 A3037 RMK A01 T10021008  RH  097%=      5-min Rain = 0
KONS 091800Z 23001KT M00/M01 A3037 RMK A01 T10021008  RH  097%=      5-min Rain = 0
KONS 091805Z 21000KT 00/01 A3037 RMK A01 T000000-5  RH  097%=      5-min Rain = 0
KONS 091810Z 18000KT 00/M00 A3036 RMK A01 T00031003  RH  097%=      5-min Rain = 0
KONS 091815Z 20000KT 00/M00 A3036 RMK A01 T00041002  RH  097%=      5-min Rain = 0
KONS 091820Z 26000KT 00/M00 A3036 RMK A01 T00041003  RH  097%=      5-min Rain = 0
KONS 091825Z 26000KT 00/M00 A3036 RMK A01 T00031003  RH  097%=      5-min Rain = 0
KONS 091830Z 26000KT 00/M00 A3035 RMK A01 T00031003  RH  097%=      5-min Rain = 0
KONS 091835Z 27001KT 00/M00 A3035 RMK A01 T00031003  RH  097%=      5-min Rain = 0
KONS 091840Z 25001KT 00/M00 A3035 RMK A01 T00031003  RH  097%=      5-min Rain = 0
KONS 091845Z 23002KT 00/M01 A3035 RMK A01 T00021005  RH  097%=      5-min Rain = 0
KONS 091850Z 24001KT 00/M00 A3035 RMK A01 T00021004  RH  097%=      5-min Rain = 0
KONS 091855Z 27001KT 00/M00 A3035 RMK A01 T00031003  RH  097%=      5-min Rain = 0
KONS 091900Z 29001KT 00/M00 A3034 RMK A01 T00041002  RH  096%=      5-min Rain = 0
KONS 091905Z 31001KT 01/M00 A3034 RMK A01 T00061002  RH  096%=      5-min Rain = 0
KONS 091910Z 31001KT 01/M00 A3034 RMK A01 T00061001  RH  096%=      5-min Rain = 0
KONS 091915Z 34001KT 01/M00 A3034 RMK A01 T00071001  RH  096%=      5-min Rain = 0
KONS 091920Z 01001KT 01/M00 A3034 RMK A01 T00071001  RH  095%=      5-min Rain = 0
KONS 091925Z 35002KT 01/M00 A3033 RMK A01 T00051003  RH  096%=      5-min Rain = 0
KONS 091930Z 36001KT 01/M00 A3033 RMK A01 T00051003  RH  096%=      5-min Rain = 0
KONS 091935Z 36001KT 00/M00 A3033 RMK A01 T00041003  RH  096%=      5-min Rain = 0
KONS 091940Z 36002KT 00/M00 A3033 RMK A01 T00041003  RH  096%=      5-min Rain = 0
KONS 091945Z 35002KT 00/M00 A3033 RMK A01 T00041003  RH  096%=      5-min Rain = 0
KONS 091950Z 35002KT 00/M00 A3033 RMK A01 T00041003  RH  096%=      5-min Rain = 0
KONS 091955Z 36002KT 00/M00 A3033 RMK A01 T00041003  RH  096%=      5-min Rain = 0
KONS 092000Z 00002KT 00/M00 A3033 RMK A01 T00041003  RH  096%=      5-min Rain = 0
KONS 092005Z 35001KT 01/M00 A3033 RMK A01 T00051002  RH  096%=      5-min Rain = 0
KONS 092010Z 02000KT 01/M00 A3033 RMK A01 T00061001  RH  096%=      5-min Rain = 0
KONS 092015Z 05001KT 01/M00 A3032 RMK A01 T00071001  RH  096%=      5-min Rain = 0
KONS 092020Z 09001KT 01/M00 A3032 RMK A01 T00071001  RH  096%=      5-min Rain = 0
KONS 092025Z 08001KT 01/00 A3032 RMK A01 T000700-0  RH  096%=      5-min Rain = 0
KONS 092030Z 14000KT 01/00 A3032 RMK A01 T00110003  RH  096%=      5-min Rain = 0
KONS 092035Z 15002KT 01/00 A3032 RMK A01 T00120004  RH  095%=      5-min Rain = 0
KONS 092040Z 15001KT 01/00 A3032 RMK A01 T00100002  RH  095%=      5-min Rain = 0
KONS 092045Z 16001KT 01/00 A3032 RMK A01 T00120004  RH  095%=      5-min Rain = 0
KONS 092050Z 18002KT 01/00 A3032 RMK A01 T00110003  RH  095%=      5-min Rain = 0
KONS 092055Z 19000KT 01/00 A3032 RMK A01 T00120004  RH  095%=      5-min Rain = 0
KONS 092100Z 23000KT 02/01 A3032 RMK A01 T00170009  RH  095%=      5-min Rain = 0
KONS 092105Z 00000KT 02/01 A3032 RMK A01 T00180009  RH  095%=      5-min Rain = 0
KONS 092110Z 00000KT 02/01 A3032 RMK A01 T00180009  RH  095%=      5-min Rain = 0
KONS 092115Z 16000KT 02/01 A3032 RMK A01 T00200011  RH  095%=      5-min Rain = 0
KONS 092120Z 00000KT 02/01 A3032 RMK A01 T00200011  RH  095%=      5-min Rain = 0
KONS 092125Z 19001KT 02/01 A3032 RMK A01 T00210012  RH  095%=      5-min Rain = 0
KONS 092130Z 20002KT 01/01 A3032 RMK A01 T00140006  RH  095%=      5-min Rain = 0
KONS 092135Z 20001KT 01/01 A3032 RMK A01 T00130005  RH  096%=      5-min Rain = 0
KONS 092140Z 21001KT 02/01 A3032 RMK A01 T00150008  RH  096%=      5-min Rain = 0
KONS 092145Z 20002KT 02/01 A3032 RMK A01 T00150008  RH  096%=      5-min Rain = 0
KONS 092150Z 20002KT 02/01 A3032 RMK A01 T00150009  RH  096%=      5-min Rain = 0
KONS 092155Z 19004KT 02/01 A3032 RMK A01 T00160009  RH  096%=      5-min Rain = 0
KONS 092200Z 18004KT 02/01 A3031 RMK A01 T00150009  RH  097%=      5-min Rain = 0
KONS 092205Z 19004KT 02/01 A3031 RMK A01 T00170010  RH  097%=      5-min Rain = 0
KONS 092210Z 19005KT 02/01 A3031 RMK A01 T00160009  RH  097%=      5-min Rain = 0
KONS 092215Z 20005KT 01/01 A3032 RMK A01 T00140008  RH  097%=      5-min Rain = 0
KONS 092220Z 21005KT 01/01 A3032 RMK A01 T00130007  RH  097%=      5-min Rain = 0
KONS 092225Z 21006KT 01/01 A3032 RMK A01 T00140007  RH  096%=      5-min Rain = 0
KONS 092230Z 21005KT 01/01 A3032 RMK A01 T00140007  RH  096%=      5-min Rain = 0
KONS 092235Z 20005KT 02/01 A3032 RMK A01 T00160008  RH  096%=      5-min Rain = 0
KONS 092240Z 20005KT 02/01 A3032 RMK A01 T00180009  RH  094%=      5-min Rain = 0
KONS 092245Z 20005KT 02/00 A3032 RMK A01 T00190002  RH  089%=      5-min Rain = 0
KONS 092250Z 19005KT 02/M01 A3032 RMK A01 T00201008  RH  083%=      5-min Rain = 0
KONS 092255Z 18005KT 02/M01 A3032 RMK A01 T00201012  RH  080%=      5-min Rain = 0
KONS 092300Z 17005KT 02/M01 A3032 RMK A01 T00191013  RH  080%=      5-min Rain = 0
KONS 092305Z 16005KT 02/M02 A3032 RMK A01 T00171017  RH  079%=      5-min Rain = 0
KONS 092310Z 17006KT 01/M02 A3032 RMK A01 T00121021  RH  079%=      5-min Rain = 0
KONS 092315Z 18006KT 01/M02 A3032 RMK A01 T00111020  RH  080%=      5-min Rain = 0
KONS 092320Z 18007KT 01/M02 A3032 RMK A01 T00111019  RH  081%=      5-min Rain = 0
KONS 092325Z 18007KT 01/M02 A3032 RMK A01 T00071021  RH  082%=      5-min Rain = 0
KONS 092330Z 19007KT 00/M02 A3032 RMK A01 T00041022  RH  084%=      5-min Rain = 0
KONS 092335Z 19007KT 00/M02 A3032 RMK A01 T00011024  RH  085%=      5-min Rain = 0
KONS 092340Z 19007KT M00/M03 A3032 RMK A01 T10041027  RH  086%=      5-min Rain = 0
KONS 092345Z 19007KT M01/M03 A3032 RMK A01 T10081029  RH  087%=      5-min Rain = 0
KONS 092350Z 19007KT M01/M03 A3032 RMK A01 T10101030  RH  088%=      5-min Rain = 0
KONS 092355Z 19006KT M01/M03 A3032 RMK A01 T10121031  RH  088%=      5-min Rain = 0
KONS 100000Z 20006KT M01/M03 A3032 RMK A01 T10131031  RH  089%=      5-min Rain = 0
KONS 100005Z 20007KT M01/M03 A3032 RMK A01 T10141031  RH  089%=      5-min Rain = 0
KONS 100010Z 20006KT M02/M04 A3033 RMK A01 T10171035  RH  088%=      5-min Rain = 0
KONS 100015Z 19005KT M02/M04 A3033 RMK A01 T10201037  RH  089%=      5-min Rain = 0
KONS 100020Z 18005KT M02/M04 A3033 RMK A01 T10201036  RH  090%=      5-min Rain = 0
KONS 100025Z 19005KT M02/M03 A3033 RMK A01 T10171032  RH  091%=      5-min Rain = 0
KONS 100030Z 20005KT M02/M03 A3033 RMK A01 T10151031  RH  090%=      5-min Rain = 0
KONS 100035Z 21005KT M01/M03 A3033 RMK A01 T10121029  RH  090%=      5-min Rain = 0
KONS 100040Z 21006KT M01/M03 A3033 RMK A01 T10141033  RH  088%=      5-min Rain = 0
KONS 100045Z 21007KT M02/M04 A3033 RMK A01 T10181036  RH  088%=      5-min Rain = 0
KONS 100050Z 20006KT M02/M04 A3034 RMK A01 T10201037  RH  089%=      5-min Rain = 0
KONS 100055Z 20006KT M02/M04 A3034 RMK A01 T10211037  RH  090%=      5-min Rain = 0
KONS 100100Z 21006KT M02/M03 A3034 RMK A01 T10191034  RH  090%=      5-min Rain = 0
KONS 100105Z 21006KT M01/M03 A3034 RMK A01 T10141029  RH  090%=      5-min Rain = 0
KONS 100110Z 22006KT M01/M03 A3034 RMK A01 T10141033  RH  088%=      5-min Rain = 0
KONS 100115Z 23004KT M02/M04 A3034 RMK A01 T10191041  RH  086%=      5-min Rain = 0
KONS 100120Z 23003KT M02/M04 A3034 RMK A01 T10241044  RH  087%=      5-min Rain = 0
KONS 100125Z 24002KT M03/M04 A3035 RMK A01 T10251043  RH  088%=      5-min Rain = 0
KONS 100130Z 24002KT M03/M04 A3035 RMK A01 T10251041  RH  090%=      5-min Rain = 0
KONS 100135Z 26001KT M03/M05 A3035 RMK A01 T10281046  RH  089%=      5-min Rain = 0
KONS 100140Z 26001KT M03/M05 A3035 RMK A01 T10311047  RH  089%=      5-min Rain = 0
KONS 100145Z 26001KT M04/M05 A3035 RMK A01 T10351051  RH  090%=      5-min Rain = 0
KONS 100150Z 26001KT M04/M05 A3035 RMK A01 T10361051  RH  091%=      5-min Rain = 0
KONS 100155Z 26002KT M04/M05 A3035 RMK A01 T10381052  RH  091%=      5-min Rain = 0
KONS 100200Z 28003KT M04/M05 A3036 RMK A01 T10371049  RH  092%=      5-min Rain = 0
KONS 100205Z 28003KT M04/M05 A3036 RMK A01 T10361047  RH  093%=      5-min Rain = 0
KONS 100210Z 28003KT M04/M05 A3036 RMK A01 T10361047  RH  093%=      5-min Rain = 0
KONS 100215Z 27003KT M03/M04 A3036 RMK A01 T10331044  RH  094%=      5-min Rain = 0
KONS 100220Z 26003KT M03/M04 A3036 RMK A01 T10331043  RH  094%=      5-min Rain = 0
KONS 100225Z 26004KT M03/M04 A3036 RMK A01 T10341044  RH  094%=      5-min Rain = 0
KONS 100230Z 26004KT M03/M04 A3037 RMK A01 T10341044  RH  094%=      5-min Rain = 0
KONS 100235Z 26004KT M03/M04 A3037 RMK A01 T10301039  RH  094%=      5-min Rain = 0
KONS 100240Z 27005KT M03/M04 A3037 RMK A01 T10301040  RH  094%=      5-min Rain = 0
KONS 100245Z 27005KT M03/M04 A3037 RMK A01 T10321044  RH  093%=      5-min Rain = 0
KONS 100250Z 28005KT M04/M05 A3037 RMK A01 T10351047  RH  093%=      5-min Rain = 0
KONS 100255Z 28005KT M04/M05 A3037 RMK A01 T10381050  RH  093%=      5-min Rain = 0
KONS 100300Z 27006KT M04/M05 A3037 RMK A01 T10371048  RH  094%=      5-min Rain = 0
KONS 100305Z 28006KT M03/M04 A3037 RMK A01 T10341044  RH  094%=      5-min Rain = 0
KONS 100310Z 28006KT M04/M05 A3037 RMK A01 T10401053  RH  092%=      5-min Rain = 0
KONS 100315Z 29006KT M05/M06 A3037 RMK A01 T10481061  RH  092%=      5-min Rain = 0
KONS 100320Z 29006KT M05/M06 A3037 RMK A01 T10491060  RH  093%=      5-min Rain = 0
KONS 100325Z 28006KT M05/M06 A3037 RMK A01 T10491060  RH  094%=      5-min Rain = 0
KONS 100330Z 28006KT M05/M06 A3037 RMK A01 T10471057  RH  094%=      5-min Rain = 0
KONS 100335Z 28006KT M05/M06 A3037 RMK A01 T10461055  RH  094%=      5-min Rain = 0
KONS 100340Z 27006KT M04/M05 A3037 RMK A01 T10401049  RH  095%=      5-min Rain = 0
KONS 100345Z 27007KT M04/M05 A3037 RMK A01 T10391049  RH  094%=      5-min Rain = 0
KONS 100350Z 28007KT M04/M06 A3037 RMK A01 T10431055  RH  093%=      5-min Rain = 0
KONS 100355Z 28007KT M05/M06 A3037 RMK A01 T10481059  RH  093%=      5-min Rain = 0
KONS 100400Z 28007KT M04/M05 A3037 RMK A01 T10411050  RH  095%=      5-min Rain = 0
KONS 100405Z 28006KT M04/M05 A3037 RMK A01 T10381048  RH  094%=      5-min Rain = 0
KONS 100410Z 28006KT M04/M05 A3037 RMK A01 T10421054  RH  093%=      5-min Rain = 0
KONS 100415Z 28007KT M04/M05 A3037 RMK A01 T10371047  RH  094%=      5-min Rain = 0
KONS 100420Z 28008KT M04/M05 A3037 RMK A01 T10371048  RH  093%=      5-min Rain = 0
KONS 100425Z 28008KT M04/M05 A3037 RMK A01 T10381050  RH  093%=      5-min Rain = 0
KONS 100430Z 27008KT M04/M05 A3037 RMK A01 T10391050  RH  093%=      5-min Rain = 0
KONS 100435Z 27007KT M04/M05 A3037 RMK A01 T10381049  RH  093%=      5-min Rain = 0
KONS 100440Z 27007KT M04/M05 A3037 RMK A01 T10381050  RH  093%=      5-min Rain = 0
KONS 100445Z 27007KT M04/M05 A3038 RMK A01 T10401051  RH  093%=      5-min Rain = 0
KONS 100450Z 27007KT M04/M05 A3038 RMK A01 T10401052  RH  093%=      5-min Rain = 0
KONS 100455Z 28006KT M04/M05 A3038 RMK A01 T10421053  RH  093%=      5-min Rain = 0
KONS 100500Z 28005KT M04/M06 A3038 RMK A01 T10441056  RH  092%=      5-min Rain = 0
KONS 100505Z 28004KT M05/M06 A3037 RMK A01 T10451056  RH  093%=      5-min Rain = 0
KONS 100510Z 28005KT M05/M06 A3037 RMK A01 T10451057  RH  093%=      5-min Rain = 0
KONS 100515Z 26005KT M05/M06 A3037 RMK A01 T10511063  RH  092%=      5-min Rain = 0
KONS 100520Z 27006KT M05/M07 A3037 RMK A01 T10541065  RH  093%=      5-min Rain = 0
KONS 100525Z 28005KT M05/M06 A3037 RMK A01 T10511061  RH  094%=      5-min Rain = 0
KONS 100530Z 26007KT M05/M06 A3037 RMK A01 T10511061  RH  094%=      5-min Rain = 0
KONS 100535Z 26008KT M06/M07 A3037 RMK A01 T10551066  RH  093%=      5-min Rain = 0
KONS 100540Z 25008KT M06/M07 A3037 RMK A01 T10571068  RH  093%=      5-min Rain = 0
KONS 100545Z 26008KT M06/M07 A3037 RMK A01 T10571068  RH  094%=      5-min Rain = 0
KONS 100550Z 27007KT M05/M06 A3037 RMK A01 T10541063  RH  094%=      5-min Rain = 0
KONS 100555Z 27007KT M05/M06 A3037 RMK A01 T10531062  RH  094%=      5-min Rain = 0

Page generated in 0.0394 seconds.